Terminal Aerodrome Forecast
Issued by NWS St Louis, MO

Home | Current Version | Previous Version | Text Only | Print | Product List | Glossary On
Versions: 1 2 3 4 5 6 7 8 9 10 11 12 13 14 15 16 17 18 19 20 21 22 23 24 25 26 27
675
FTUS43 KLSX 191121
TAFSTL
TAF
KSTL 191121Z 1912/2018 09004KT 4SM -SHRA BR OVC012
     FM191800 08004KT 4SM -SHRA BR OVC003
     FM200000 VRB03KT 6SM BR OVC003
     FM200600 VRB03KT 1SM BR OVC003
     FM201000 VRB03KT 1/2SM FG OVC003
     FM201600 16005KT 2SM BR BKN008=

USA.gov is the U.S. government's official web portal to all federal, state and local government web resources and services.